createdAt,value
2023-02-01T00:01:20.711Z,14.38
2023-02-01T00:03:48.838Z,14.36
2023-02-01T00:06:17.091Z,14.31
2023-02-01T00:08:45.140Z,14.29
2023-02-01T00:11:15.187Z,14.24
2023-02-01T00:13:44.296Z,14.23
2023-02-01T00:16:15.528Z,14.21
2023-02-01T00:18:44.116Z,14.18
2023-02-01T00:21:13.684Z,14.15
2023-02-01T00:23:42.123Z,14.14
2023-02-01T00:26:16.063Z,14.09
2023-02-01T00:28:44.351Z,14.10
2023-02-01T00:31:12.924Z,14.08
2023-02-01T00:33:41.196Z,14.05
2023-02-01T00:36:11.505Z,14.00
2023-02-01T00:38:42.635Z,13.99
2023-02-01T00:41:13.844Z,13.96
2023-02-01T00:43:44.114Z,13.94
2023-02-01T00:46:12.876Z,13.90
2023-02-01T00:48:41.692Z,13.91
2023-02-01T00:51:12.171Z,13.89
2023-02-01T00:53:40.422Z,13.86
2023-02-01T00:56:09.668Z,13.84
2023-02-01T00:58:38.073Z,13.81
2023-02-01T01:01:09.994Z,13.80
2023-02-01T01:03:39.287Z,13.78
2023-02-01T01:06:09.355Z,13.75
2023-02-01T01:08:38.455Z,13.73
2023-02-01T01:11:07.959Z,13.71
2023-02-01T01:13:36.386Z,13.70
2023-02-01T01:16:05.216Z,13.68
2023-02-01T01:18:35.571Z,13.66
2023-02-01T01:21:05.715Z,13.64
2023-02-01T01:23:33.959Z,13.59
2023-02-01T01:26:02.464Z,13.63
2023-02-01T01:28:30.983Z,13.61
2023-02-01T01:30:59.118Z,13.59
2023-02-01T01:33:27.332Z,13.57
2023-02-01T01:35:57.956Z,13.57
2023-02-01T01:38:26.409Z,13.56
2023-02-01T01:40:54.472Z,13.55
2023-02-01T01:43:23.481Z,13.53
2023-02-01T01:45:52.208Z,13.52
2023-02-01T01:48:27.103Z,13.49
2023-02-01T01:51:00.676Z,13.49
2023-02-01T01:53:33.917Z,13.49
2023-02-01T01:56:02.596Z,13.49
2023-02-01T01:58:34.043Z,13.47
2023-02-01T02:01:02.346Z,13.46
2023-02-01T02:03:35.479Z,13.44
2023-02-01T02:06:08.797Z,13.40
2023-02-01T02:08:36.924Z,13.44
2023-02-01T02:11:05.063Z,13.42
2023-02-01T02:13:36.249Z,13.42
2023-02-01T02:16:28.050Z,13.39
2023-02-01T02:19:19.229Z,13.38
2023-02-01T02:22:07.859Z,13.38
2023-02-01T02:25:29.377Z,13.35
2023-02-01T02:28:08.996Z,13.34
2023-02-01T02:30:47.253Z,13.32
2023-02-01T02:33:41.345Z,13.31
2023-02-01T02:36:15.833Z,13.31
2023-02-01T02:38:49.725Z,13.31
2023-02-01T02:41:35.601Z,13.29
2023-02-01T02:44:32.041Z,13.26
2023-02-01T02:47:28.506Z,13.26
2023-02-01T02:50:25.439Z,13.26
2023-02-01T02:53:20.151Z,13.23
2023-02-01T02:55:48.335Z,13.22
2023-02-01T02:58:35.464Z,13.22
2023-02-01T03:01:21.872Z,13.17
2023-02-01T03:04:10.700Z,13.20
2023-02-01T03:06:41.022Z,13.18
2023-02-01T03:09:16.087Z,13.15
2023-02-01T03:12:05.267Z,13.14
2023-02-01T03:14:36.519Z,13.15
2023-02-01T03:17:10.590Z,13.15
2023-02-01T03:19:49.429Z,13.11
2023-02-01T03:22:23.283Z,13.09
2023-02-01T03:24:55.260Z,13.11
2023-02-01T03:27:29.925Z,13.09
2023-02-01T03:30:06.714Z,13.09
2023-02-01T03:32:56.163Z,13.08
2023-02-01T03:35:29.907Z,13.05
2023-02-01T03:38:05.921Z,13.05
2023-02-01T03:40:38.827Z,13.04
2023-02-01T03:43:13.250Z,13.03
2023-02-01T03:45:45.685Z,12.99
2023-02-01T03:48:16.242Z,13.01
2023-02-01T03:50:50.569Z,12.99
2023-02-01T03:53:25.037Z,12.98
2023-02-01T03:55:54.931Z,12.94
2023-02-01T03:58:24.865Z,12.94
2023-02-01T04:00:55.367Z,12.91
2023-02-01T04:03:23.908Z,12.88
2023-02-01T04:05:52.107Z,12.90
2023-02-01T04:08:22.348Z,12.90
2023-02-01T04:10:50.526Z,12.93
2023-02-01T04:13:19.206Z,12.97
2023-02-01T04:15:50.767Z,13.06
2023-02-01T04:18:19.169Z,13.18
2023-02-01T04:20:47.312Z,13.30
2023-02-01T04:23:16.733Z,13.42
2023-02-01T04:25:46.563Z,13.54
2023-02-01T04:28:15.029Z,13.65
2023-02-01T04:30:43.158Z,13.73
2023-02-01T04:33:14.913Z,13.87
2023-02-01T04:35:43.292Z,13.99
2023-02-01T04:38:11.380Z,14.07
2023-02-01T04:40:39.546Z,14.14
2023-02-01T04:43:09.076Z,14.22
2023-02-01T04:45:37.107Z,14.31
2023-02-01T04:48:05.756Z,14.38
2023-02-01T04:50:33.986Z,14.46
2023-02-01T04:53:02.076Z,14.50
2023-02-01T04:55:30.125Z,14.56
2023-02-01T04:57:58.235Z,14.66
2023-02-01T05:00:28.319Z,14.72
2023-02-01T05:02:56.550Z,14.84
2023-02-01T05:05:25.890Z,14.92
2023-02-01T05:07:54.007Z,14.99
2023-02-01T05:10:22.490Z,15.06
2023-02-01T05:13:07.918Z,15.12
2023-02-01T05:15:37.411Z,15.21
2023-02-01T05:18:05.702Z,15.32
2023-02-01T05:20:33.902Z,15.41
2023-02-01T05:23:02.096Z,15.48
2023-02-01T05:25:30.225Z,15.54
2023-02-01T05:27:58.400Z,15.65
2023-02-01T05:30:26.569Z,15.71
2023-02-01T05:32:56.033Z,15.80
2023-02-01T05:35:24.170Z,15.85
2023-02-01T05:37:52.240Z,15.93
2023-02-01T05:40:20.474Z,15.96
2023-02-01T05:42:48.644Z,15.97
2023-02-01T05:45:16.850Z,15.97
2023-02-01T05:47:44.944Z,15.97
2023-02-01T05:50:14.397Z,15.94
2023-02-01T05:52:44.120Z,15.91
2023-02-01T05:55:12.249Z,15.90
2023-02-01T05:57:40.325Z,15.85
2023-02-01T06:00:10.038Z,15.82
2023-02-01T06:02:38.172Z,15.80
2023-02-01T06:05:07.139Z,15.74
2023-02-01T06:07:36.659Z,15.71
2023-02-01T06:10:05.716Z,15.64
2023-02-01T06:12:33.784Z,15.65
2023-02-01T06:15:02.194Z,15.59
2023-02-01T06:17:30.351Z,15.54
2023-02-01T06:19:58.547Z,15.52
2023-02-01T06:22:26.632Z,15.47
2023-02-01T06:24:56.064Z,15.43
2023-02-01T06:27:24.249Z,15.37
2023-02-01T06:29:52.371Z,15.35
2023-02-01T06:32:20.432Z,15.31
2023-02-01T06:34:48.517Z,15.26
2023-02-01T06:37:16.640Z,15.20
2023-02-01T06:39:44.719Z,15.18
2023-02-01T06:42:14.208Z,15.13
2023-02-01T06:44:42.302Z,15.09
2023-02-01T06:47:10.462Z,15.05
2023-02-01T06:49:38.535Z,15.01
2023-02-01T06:52:06.586Z,14.99
2023-02-01T06:54:35.155Z,14.93
2023-02-01T06:57:03.262Z,14.88
2023-02-01T06:59:32.742Z,14.88
2023-02-01T07:02:00.861Z,14.83
2023-02-01T07:04:28.936Z,14.80
2023-02-01T07:06:57.162Z,14.76
2023-02-01T07:09:25.534Z,14.75
2023-02-01T07:11:53.585Z,14.71
2023-02-01T07:14:22.057Z,14.68
2023-02-01T07:16:51.892Z,14.63
2023-02-01T07:19:20.111Z,14.63
2023-02-01T07:21:48.282Z,14.59
2023-02-01T07:24:16.748Z,14.59
2023-02-01T07:26:44.968Z,14.62
2023-02-01T07:29:13.482Z,14.69
2023-02-01T07:31:41.981Z,14.79
2023-02-01T07:34:11.625Z,14.88
2023-02-01T07:36:39.751Z,14.97
2023-02-01T07:39:08.049Z,15.08
2023-02-01T07:41:36.435Z,15.16
2023-02-01T07:44:04.636Z,15.29
2023-02-01T07:46:32.783Z,15.39
2023-02-01T07:49:01.266Z,15.49
2023-02-01T07:51:30.963Z,15.57
2023-02-01T07:53:59.804Z,15.62
2023-02-01T07:56:27.890Z,15.73
2023-02-01T07:58:57.020Z,15.81
2023-02-01T08:01:26.392Z,15.91
2023-02-01T08:03:56.843Z,15.95
2023-02-01T08:06:25.833Z,15.97
2023-02-01T08:08:56.144Z,16.01
2023-02-01T08:11:25.524Z,16.01
2023-02-01T08:13:54.537Z,16.01
2023-02-01T08:16:24.345Z,16.01
2023-02-01T08:18:52.776Z,16.00
2023-02-01T08:21:24.092Z,15.98
2023-02-01T08:23:52.674Z,15.98
2023-02-01T08:26:24.181Z,15.96
2023-02-01T08:28:54.117Z,15.94
2023-02-01T08:31:24.492Z,15.92
2023-02-01T08:33:54.800Z,15.88
2023-02-01T08:36:24.227Z,15.85
2023-02-01T08:38:52.567Z,15.82
2023-02-01T08:41:24.433Z,15.78
2023-02-01T08:43:53.826Z,15.76
2023-02-01T08:46:22.447Z,15.71
2023-02-01T08:48:51.068Z,15.65
2023-02-01T08:51:20.902Z,15.64
2023-02-01T08:53:50.437Z,15.59
2023-02-01T08:56:20.097Z,15.55
2023-02-01T08:58:49.543Z,15.52
2023-02-01T09:01:18.954Z,15.48
2023-02-01T09:03:47.634Z,15.46
2023-02-01T09:06:17.223Z,15.43
2023-02-01T09:08:45.602Z,15.40
2023-02-01T09:11:17.028Z,15.37
2023-02-01T09:13:45.540Z,15.35
2023-02-01T09:16:15.129Z,15.34
2023-02-01T09:18:55.419Z,15.30
2023-02-01T09:21:31.629Z,15.28
2023-02-01T09:24:01.111Z,15.27
2023-02-01T09:26:32.661Z,15.23
2023-02-01T09:29:01.508Z,15.22
2023-02-01T09:31:31.639Z,15.19
2023-02-01T09:34:00.096Z,15.15
2023-02-01T09:36:30.224Z,15.13
2023-02-01T09:38:59.681Z,15.12
2023-02-01T09:41:44.974Z,15.12
2023-02-01T09:44:27.607Z,15.08
2023-02-01T09:46:58.165Z,15.03
2023-02-01T09:49:31.365Z,14.99
2023-02-01T09:52:03.076Z,14.97
2023-02-01T09:54:46.261Z,14.91
2023-02-01T09:57:21.664Z,14.90
2023-02-01T09:59:58.418Z,14.85
2023-02-01T10:02:31.279Z,14.83
2023-02-01T10:05:01.692Z,14.89
2023-02-01T10:07:37.462Z,14.86
2023-02-01T10:10:12.097Z,14.93
2023-02-01T10:12:56.342Z,14.92
2023-02-01T10:15:37.800Z,14.85
2023-02-01T10:18:22.786Z,14.83
2023-02-01T10:20:59.345Z,14.82
2023-02-01T10:23:39.045Z,14.87
2023-02-01T10:26:18.010Z,14.82
2023-02-01T10:28:50.500Z,14.79
2023-02-01T10:31:20.208Z,14.77
2023-02-01T10:33:52.333Z,14.87
2023-02-01T10:36:27.965Z,14.98
2023-02-01T10:38:59.373Z,15.06
2023-02-01T10:41:33.659Z,15.11
2023-02-01T10:44:05.393Z,15.18
2023-02-01T10:46:33.773Z,15.21
2023-02-01T10:49:07.540Z,15.23
2023-02-01T10:51:45.043Z,15.26
2023-02-01T10:54:18.344Z,15.28
2023-02-01T10:56:47.595Z,15.26
2023-02-01T10:59:20.990Z,15.28
2023-02-01T11:01:51.356Z,15.30
2023-02-01T11:04:22.665Z,15.30
2023-02-01T11:06:54.547Z,15.24
2023-02-01T11:09:25.240Z,15.19
2023-02-01T11:11:59.634Z,15.12
2023-02-01T11:14:45.639Z,15.10
2023-02-01T11:17:29.295Z,15.04
2023-02-01T11:20:04.671Z,15.00
2023-02-01T11:22:33.014Z,14.99
2023-02-01T11:25:03.426Z,14.90
2023-02-01T11:27:31.964Z,14.88
2023-02-01T11:30:05.230Z,14.85
2023-02-01T11:32:36.522Z,14.82
2023-02-01T11:35:08.531Z,14.81
2023-02-01T11:37:40.909Z,14.76
2023-02-01T11:40:29.731Z,14.69
2023-02-01T11:43:00.680Z,14.67
2023-02-01T11:45:30.371Z,14.62
2023-02-01T11:48:01.341Z,14.56
2023-02-01T11:50:40.207Z,14.54
2023-02-01T11:53:32.879Z,14.50
2023-02-01T11:56:18.935Z,14.47
2023-02-01T11:59:21.674Z,14.44
2023-02-01T12:02:11.570Z,14.38
2023-02-01T12:05:09.582Z,14.38
2023-02-01T12:07:55.301Z,14.35
2023-02-01T12:10:36.609Z,14.32
2023-02-01T12:13:22.366Z,14.29
2023-02-01T12:16:02.890Z,14.27
2023-02-01T12:19:07.073Z,14.21
2023-02-01T12:21:42.876Z,14.21
2023-02-01T12:24:46.001Z,14.17
2023-02-01T12:27:50.339Z,14.16
2023-02-01T12:30:55.177Z,14.13
2023-02-01T12:33:34.938Z,14.07
2023-02-01T12:36:12.811Z,14.04
2023-02-01T12:38:53.426Z,14.00
2023-02-01T12:41:52.979Z,13.97
2023-02-01T12:44:34.633Z,13.89
2023-02-01T12:47:09.660Z,13.88
2023-02-01T12:49:47.379Z,13.87
2023-02-01T12:52:20.740Z,13.84
2023-02-01T12:54:57.178Z,13.82
2023-02-01T12:57:30.507Z,13.79
2023-02-01T13:00:03.843Z,13.72
2023-02-01T13:02:40.195Z,13.72
2023-02-01T13:05:17.621Z,13.72
2023-02-01T13:07:52.372Z,13.72
2023-02-01T13:10:26.386Z,13.78
2023-02-01T13:13:02.469Z,13.81
2023-02-01T13:15:35.469Z,13.83
2023-02-01T13:18:07.703Z,13.81
2023-02-01T13:20:39.263Z,13.79
2023-02-01T13:23:13.886Z,13.77
2023-02-01T13:25:48.607Z,13.77
2023-02-01T13:28:22.240Z,13.78
2023-02-01T13:31:13.062Z,13.75
2023-02-01T13:33:57.191Z,13.69
2023-02-01T13:36:49.303Z,13.69
2023-02-01T13:39:46.030Z,13.66
2023-02-01T13:42:19.306Z,13.61
2023-02-01T13:44:50.767Z,13.59
2023-02-01T13:47:28.412Z,13.57
2023-02-01T13:49:59.356Z,13.53
2023-02-01T13:52:31.485Z,13.50
2023-02-01T13:55:31.580Z,13.47
2023-02-01T13:58:17.796Z,13.45
2023-02-01T14:00:49.365Z,13.41
2023-02-01T14:03:20.347Z,13.37
2023-02-01T14:06:18.706Z,13.41
2023-02-01T14:09:06.427Z,13.45
2023-02-01T14:11:37.920Z,13.48
2023-02-01T14:14:45.745Z,13.55
2023-02-01T14:17:40.071Z,13.60
2023-02-01T14:20:46.282Z,13.67
2023-02-01T14:23:18.859Z,13.63
2023-02-01T14:25:49.658Z,13.62
2023-02-01T14:28:28.351Z,13.61
2023-02-01T14:30:59.034Z,13.59
2023-02-01T14:33:30.377Z,13.58
2023-02-01T14:36:08.196Z,13.56
2023-02-01T14:38:39.222Z,13.52
2023-02-01T14:41:20.872Z,13.53
2023-02-01T14:43:53.279Z,13.55
2023-02-01T14:46:21.409Z,13.53
2023-02-01T14:48:59.094Z,13.51
2023-02-01T14:51:27.413Z,13.50
2023-02-01T14:53:56.069Z,13.52
2023-02-01T14:56:25.657Z,13.49
2023-02-01T14:58:59.571Z,13.46
2023-02-01T15:01:31.635Z,13.48
2023-02-01T15:04:06.263Z,13.48
2023-02-01T15:06:40.921Z,13.50
2023-02-01T15:09:13.803Z,13.56
2023-02-01T15:12:03.453Z,13.68
2023-02-01T15:14:34.198Z,13.77
2023-02-01T15:17:02.993Z,13.87
2023-02-01T15:19:32.825Z,13.98
2023-02-01T15:22:01.419Z,14.12
2023-02-01T15:24:31.321Z,14.23
2023-02-01T15:27:06.068Z,14.40
2023-02-01T15:29:35.062Z,14.49
2023-02-01T15:32:03.469Z,14.60
2023-02-01T15:37:31.501Z,14.73
2023-02-01T15:40:08.573Z,14.78
2023-02-01T15:42:37.646Z,14.79
2023-02-01T15:45:06.576Z,14.77
2023-02-01T15:47:36.250Z,14.79
2023-02-01T15:50:04.592Z,14.78
2023-02-01T15:52:38.303Z,14.77
2023-02-01T15:55:19.742Z,14.74
2023-02-01T15:57:51.691Z,14.72
2023-02-01T16:00:24.579Z,14.71
2023-02-01T16:02:58.189Z,14.67
2023-02-01T16:05:34.354Z,14.65
2023-02-01T16:08:12.464Z,14.59
2023-02-01T16:10:43.003Z,14.59
2023-02-01T16:13:11.604Z,14.56
2023-02-01T16:15:40.244Z,14.51
2023-02-01T16:18:10.496Z,14.45
2023-02-01T16:20:40.949Z,14.42
2023-02-01T16:23:12.349Z,14.38
2023-02-01T16:25:41.222Z,14.35
2023-02-01T16:28:09.490Z,14.29
2023-02-01T16:30:40.697Z,14.22
2023-02-01T16:33:18.824Z,14.20
2023-02-01T16:35:47.196Z,14.15
2023-02-01T16:38:19.714Z,14.12
2023-02-01T16:40:48.348Z,14.04
2023-02-01T16:43:18.464Z,14.05
2023-02-01T16:45:49.353Z,14.01
2023-02-01T16:48:25.597Z,13.94
2023-02-01T16:50:55.984Z,13.94
2023-02-01T16:53:28.551Z,13.93
2023-02-01T16:55:58.318Z,13.90
2023-02-01T16:58:27.265Z,13.87
2023-02-01T17:00:55.861Z,13.85
2023-02-01T17:03:24.611Z,13.82
2023-02-01T17:05:54.939Z,13.80
2023-02-01T17:08:31.635Z,13.77
2023-02-01T17:11:01.049Z,13.81
2023-02-01T17:13:32.535Z,13.88
2023-02-01T17:16:04.847Z,13.97
2023-02-01T17:18:36.393Z,14.09
2023-02-01T17:21:07.670Z,14.21
2023-02-01T17:23:37.332Z,14.32
2023-02-01T17:26:08.715Z,14.43
2023-02-01T17:28:36.924Z,14.53
2023-02-01T17:31:05.788Z,14.62
2023-02-01T17:33:36.938Z,14.75
2023-02-01T17:36:06.942Z,14.85
2023-02-01T17:38:36.932Z,15.00
2023-02-01T17:41:06.286Z,15.11
2023-02-01T17:43:34.734Z,15.20
2023-02-01T17:46:07.028Z,15.29
2023-02-01T17:48:35.579Z,15.36
2023-02-01T17:51:04.184Z,15.45
2023-02-01T17:53:34.109Z,15.56
2023-02-01T17:56:03.545Z,15.64
2023-02-01T17:58:33.501Z,15.74
2023-02-01T18:01:01.875Z,15.84
2023-02-01T18:03:33.059Z,15.94
2023-02-01T18:06:01.908Z,15.99
2023-02-01T18:08:33.402Z,16.03
2023-02-01T18:11:03.650Z,16.07
2023-02-01T18:13:34.924Z,16.08
2023-02-01T18:16:04.545Z,16.13
2023-02-01T18:18:34.126Z,16.16
2023-02-01T18:21:02.754Z,16.17
2023-02-01T18:23:31.219Z,16.20
2023-02-01T18:25:59.672Z,16.23
2023-02-01T18:28:29.479Z,16.29
2023-02-01T18:30:58.385Z,16.34
2023-02-01T18:33:27.902Z,16.40
2023-02-01T18:35:56.324Z,16.44
2023-02-01T18:38:25.500Z,16.49
2023-02-01T18:40:58.072Z,16.55
2023-02-01T18:43:26.911Z,16.55
2023-02-01T18:45:56.693Z,16.62
2023-02-01T18:48:26.371Z,16.69
2023-02-01T18:50:57.599Z,16.73
2023-02-01T18:53:27.495Z,16.80
2023-02-01T18:55:56.933Z,16.85
2023-02-01T18:58:27.113Z,16.91
2023-02-01T19:00:59.138Z,16.95
2023-02-01T19:03:33.738Z,17.00
2023-02-01T19:06:10.104Z,17.05
2023-02-01T19:08:38.316Z,17.05
2023-02-01T19:11:09.248Z,17.06
2023-02-01T19:13:37.889Z,17.06
2023-02-01T19:16:11.929Z,17.07
2023-02-01T19:18:41.074Z,17.03
2023-02-01T19:21:12.079Z,17.08
2023-02-01T19:23:41.528Z,17.09
2023-02-01T19:26:12.483Z,17.12
2023-02-01T19:28:41.442Z,17.14
2023-02-01T19:31:11.301Z,17.20
2023-02-01T19:33:41.819Z,17.24
2023-02-01T19:36:11.019Z,17.26
2023-02-01T19:38:39.872Z,17.29
2023-02-01T19:41:08.377Z,17.33
2023-02-01T19:43:39.644Z,17.35
2023-02-01T19:46:08.327Z,17.38
2023-02-01T19:48:38.261Z,17.43
2023-02-01T19:51:08.272Z,17.47
2023-02-01T19:53:36.892Z,17.50
2023-02-01T19:56:05.906Z,17.51
2023-02-01T19:58:35.175Z,17.57
2023-02-01T20:01:06.045Z,17.59
2023-02-01T20:03:34.643Z,17.64
2023-02-01T20:06:06.286Z,17.66
2023-02-01T20:08:34.816Z,17.66
2023-02-01T20:11:07.105Z,17.65
2023-02-01T20:13:38.635Z,17.65
2023-02-01T20:16:07.601Z,17.60
2023-02-01T20:18:37.310Z,17.59
2023-02-01T20:21:07.176Z,17.58
2023-02-01T20:23:36.859Z,17.57
2023-02-01T20:26:07.798Z,17.55
2023-02-01T20:28:36.253Z,17.57
2023-02-01T20:31:04.855Z,17.58
2023-02-01T20:33:33.579Z,17.60
2023-02-01T20:36:01.892Z,17.61
2023-02-01T20:38:31.731Z,17.64
2023-02-01T20:41:04.217Z,17.67
2023-02-01T20:43:32.888Z,17.70
2023-02-01T20:46:01.602Z,17.72
2023-02-01T20:48:30.644Z,17.76
2023-02-01T20:51:00.204Z,17.79
2023-02-01T20:53:28.691Z,17.84
2023-02-01T20:55:59.340Z,17.88
2023-02-01T20:58:28.610Z,17.91
2023-02-01T21:00:57.250Z,17.94
2023-02-01T21:03:26.007Z,17.97
2023-02-01T21:05:57.377Z,17.97
2023-02-01T21:08:26.300Z,17.97
2023-02-01T21:11:00.756Z,17.94
2023-02-01T21:13:31.464Z,17.91
2023-02-01T21:16:00.072Z,17.84
2023-02-01T21:18:28.460Z,17.80
2023-02-01T21:20:58.135Z,17.75
2023-02-01T21:23:26.319Z,17.70
2023-02-01T21:25:54.516Z,17.62
2023-02-01T21:28:24.258Z,17.57
2023-02-01T21:30:52.515Z,17.51
2023-02-01T21:33:20.792Z,17.44
2023-02-01T21:35:52.308Z,17.39
2023-02-01T21:38:20.474Z,17.30
2023-02-01T21:41:11.324Z,17.23
2023-02-01T21:43:40.948Z,17.14
2023-02-01T21:46:09.377Z,17.09
2023-02-01T21:49:04.150Z,17.04
2023-02-01T21:51:26.820Z,16.96
2023-02-01T21:53:55.093Z,16.84
2023-02-01T21:56:24.319Z,16.79
2023-02-01T21:58:53.782Z,16.70
2023-02-01T22:01:22.303Z,16.63
2023-02-01T22:03:50.502Z,16.54
2023-02-01T22:06:24.454Z,16.48
2023-02-01T22:08:53.100Z,16.39
2023-02-01T22:11:21.280Z,16.33
2023-02-01T22:13:49.336Z,16.28
2023-02-01T22:16:22.228Z,16.22
2023-02-01T22:18:51.593Z,16.12
2023-02-01T22:21:20.555Z,16.07
2023-02-01T22:23:54.281Z,16.00
2023-02-01T22:26:23.526Z,15.93
2023-02-01T22:28:51.672Z,15.89
2023-02-01T22:31:22.109Z,15.83
2023-02-01T22:33:54.013Z,15.79
2023-02-01T22:36:22.100Z,15.71
2023-02-01T22:38:50.719Z,15.67
2023-02-01T22:41:19.841Z,15.63
2023-02-01T22:43:48.548Z,15.55
2023-02-01T22:46:19.331Z,15.51
2023-02-01T22:48:50.150Z,15.46
2023-02-01T22:51:20.856Z,15.39
2023-02-01T22:53:56.980Z,15.36
2023-02-01T22:56:30.219Z,15.31
2023-02-01T22:58:59.096Z,15.26
2023-02-01T23:01:27.892Z,15.22
2023-02-01T23:04:02.912Z,15.15
2023-02-01T23:06:32.152Z,15.12
2023-02-01T23:09:02.250Z,15.09
2023-02-01T23:11:30.764Z,15.02
2023-02-01T23:13:58.816Z,14.99
2023-02-01T23:16:26.983Z,14.93
2023-02-01T23:18:57.694Z,14.88
2023-02-01T23:21:27.382Z,14.82
2023-02-01T23:23:57.553Z,14.76
2023-02-01T23:26:30.286Z,14.73
2023-02-01T23:28:59.734Z,14.67
2023-02-01T23:31:30.758Z,14.63
2023-02-01T23:34:00.398Z,14.57
2023-02-01T23:36:31.960Z,14.54
2023-02-01T23:39:01.635Z,14.50
2023-02-01T23:41:31.790Z,14.47
2023-02-01T23:44:00.020Z,14.43
2023-02-01T23:46:32.666Z,14.38
2023-02-01T23:49:01.821Z,14.31
2023-02-01T23:51:31.695Z,14.29
2023-02-01T23:54:00.692Z,14.25
2023-02-01T23:56:33.317Z,14.21
2023-02-01T23:59:02.210Z,14.17
